createdAt,value
2022-11-03T01:32:32.237Z,2.30
2022-11-03T01:34:58.892Z,2.10
2022-11-03T01:37:26.331Z,1.90
2022-11-03T01:39:52.990Z,1.70
2022-11-03T01:42:19.564Z,2.10
2022-11-03T01:44:47.276Z,1.80
2022-11-03T01:47:28.290Z,2.00
2022-11-03T01:49:54.903Z,2.30
2022-11-03T01:52:21.480Z,2.00
2022-11-03T01:54:50.094Z,2.00
2022-11-03T01:57:19.665Z,1.90
2022-11-03T01:59:47.076Z,2.00
2022-11-03T02:02:13.780Z,1.90
2022-11-03T02:04:40.987Z,1.80
2022-11-03T02:07:12.030Z,3.60
2022-11-03T02:09:38.752Z,1.90
2022-11-03T02:12:06.331Z,1.40
2022-11-03T02:14:33.182Z,2.20
2022-11-03T02:17:03.955Z,1.80
2022-11-03T02:19:30.533Z,2.10
2022-11-03T02:22:13.381Z,2.00
2022-11-03T02:24:40.024Z,2.20
2022-11-03T02:27:06.665Z,2.40
2022-11-03T02:29:33.296Z,3.10
2022-11-03T02:32:04.653Z,2.00
2022-11-03T02:34:39.724Z,4.80
2022-11-03T02:37:10.104Z,2.00
2022-11-03T02:42:04.712Z,1.90
2022-11-03T02:44:32.828Z,1.80
2022-11-03T02:47:01.104Z,1.70
2022-11-03T02:49:27.751Z,1.60
2022-11-03T02:52:04.905Z,1.30
2022-11-03T02:54:34.954Z,1.70
2022-11-03T02:57:03.799Z,1.50
2022-11-03T02:59:50.666Z,1.30
2022-11-03T03:02:19.715Z,0.70
2022-11-03T03:04:49.576Z,0.80
2022-11-03T03:07:19.269Z,1.50
2022-11-03T03:09:59.000Z,1.30
2022-11-03T03:12:26.213Z,1.60
2022-11-03T03:14:53.857Z,0.70
2022-11-03T03:17:23.517Z,1.10
2022-11-03T03:19:56.563Z,1.40
2022-11-03T03:22:35.591Z,1.60
2022-11-03T03:25:08.276Z,1.80
2022-11-03T03:27:37.450Z,1.60
2022-11-03T03:30:05.764Z,1.60
2022-11-03T03:32:35.589Z,1.60
2022-11-03T03:35:03.362Z,1.40
2022-11-03T03:37:31.856Z,1.40
2022-11-03T03:39:59.814Z,1.60
2022-11-03T03:42:28.655Z,1.40
2022-11-03T03:44:55.897Z,1.30
2022-11-03T03:47:28.300Z,1.20
2022-11-03T03:49:55.275Z,1.70
2022-11-03T03:52:22.062Z,1.20
2022-11-03T03:54:48.753Z,1.10
2022-11-03T04:00:44.517Z,1.40
2022-11-03T04:03:29.722Z,1.00
2022-11-03T04:05:56.297Z,1.30
2022-11-03T04:08:22.946Z,1.40
2022-11-03T04:11:08.273Z,0.80
2022-11-03T04:13:53.558Z,1.20
2022-11-03T04:16:38.756Z,0.70
2022-11-03T04:19:24.176Z,1.10
2022-11-03T04:22:09.281Z,1.40
2022-11-03T04:24:35.844Z,1.40
2022-11-03T04:27:09.488Z,1.00
2022-11-03T04:29:36.104Z,1.20
2022-11-03T04:32:08.858Z,0.70
2022-11-03T04:34:35.404Z,1.30
2022-11-03T04:37:01.954Z,1.30
2022-11-03T04:39:28.508Z,1.50
2022-11-03T04:41:55.141Z,1.20
2022-11-03T04:44:22.330Z,1.40
2022-11-03T04:46:48.975Z,1.30
2022-11-03T04:49:21.724Z,0.90
2022-11-03T04:51:48.871Z,0.90
2022-11-03T04:54:19.473Z,1.00
2022-11-03T04:56:46.140Z,1.50
2022-11-03T04:59:13.499Z,0.70
2022-11-03T05:01:40.705Z,0.90
2022-11-03T05:04:14.946Z,1.00
2022-11-03T05:06:47.513Z,1.60
2022-11-03T05:09:23.093Z,0.90
2022-11-03T05:11:49.705Z,1.70
2022-11-03T05:14:27.022Z,1.00
2022-11-03T05:16:54.398Z,1.60
2022-11-03T05:19:23.126Z,0.90
2022-11-03T05:21:50.651Z,0.40
2022-11-03T05:24:19.023Z,1.00
2022-11-03T05:26:45.820Z,1.20
2022-11-03T05:29:18.398Z,1.00
2022-11-03T05:31:47.125Z,1.20
2022-11-03T05:34:37.033Z,0.90
2022-11-03T05:37:13.852Z,1.30
2022-11-03T05:39:43.301Z,1.50
2022-11-03T05:42:31.485Z,1.30
2022-11-03T05:44:58.237Z,1.30
2022-11-03T05:47:27.190Z,1.30
2022-11-03T05:49:56.363Z,1.00
2022-11-03T05:52:24.617Z,1.40
2022-11-03T05:54:52.101Z,1.20
2022-11-03T05:57:19.256Z,1.10
2022-11-03T05:59:46.554Z,1.30
2022-11-03T06:02:36.690Z,0.90
2022-11-03T06:05:10.713Z,1.30
2022-11-03T06:07:37.269Z,0.90
2022-11-03T06:10:20.208Z,0.90
2022-11-03T06:12:46.832Z,0.60
2022-11-03T06:15:24.432Z,1.00
2022-11-03T06:17:51.467Z,1.50
2022-11-03T06:20:20.843Z,0.90
2022-11-03T06:22:49.040Z,1.00
2022-11-03T06:25:32.782Z,1.10
2022-11-03T06:28:03.600Z,1.00
2022-11-03T06:30:34.137Z,1.20
2022-11-03T06:33:04.300Z,1.30
2022-11-03T06:35:31.171Z,0.50
2022-11-03T06:37:58.021Z,1.10
2022-11-03T06:40:32.578Z,1.10
2022-11-03T06:42:59.230Z,1.10
2022-11-03T06:45:26.231Z,1.10
2022-11-03T06:47:53.522Z,1.10
2022-11-03T06:50:22.113Z,1.30
2022-11-03T06:55:18.931Z,1.30
2022-11-03T07:01:09.172Z,1.40
2022-11-03T07:10:07.215Z,1.80
2022-11-03T07:12:34.695Z,1.80
2022-11-03T07:15:01.312Z,1.90
2022-11-03T07:17:28.326Z,1.90
2022-11-03T07:19:54.951Z,2.30
2022-11-03T07:22:22.596Z,2.50
2022-11-03T07:48:37.531Z,4.00
2022-11-03T07:51:24.404Z,4.20
2022-11-03T08:08:35.888Z,4.90
2022-11-03T08:11:02.592Z,5.20
2022-11-03T08:25:52.605Z,6.80
2022-11-03T08:28:19.240Z,7.00
2022-11-03T08:30:45.832Z,7.10
2022-11-03T08:33:12.373Z,6.90
2022-11-03T08:35:39.562Z,7.10
2022-11-03T08:38:06.501Z,7.60
2022-11-03T08:40:33.275Z,7.80
2022-11-03T08:43:02.916Z,8.30
2022-11-03T08:45:30.054Z,7.90
2022-11-03T08:47:57.054Z,8.20
2022-11-03T08:50:23.892Z,8.10
2022-11-03T08:52:50.566Z,8.40
2022-11-03T08:55:17.119Z,8.50
2022-11-03T08:57:43.704Z,8.90
2022-11-03T09:00:10.727Z,9.30
2022-11-03T09:02:37.403Z,9.10
2022-11-03T09:05:05.698Z,9.00
2022-11-03T09:10:21.289Z,9.30
2022-11-03T09:15:17.128Z,9.50
2022-11-03T09:17:45.680Z,9.70
2022-11-03T09:20:12.784Z,9.70
2022-11-03T09:22:39.522Z,9.80
2022-11-03T09:25:06.756Z,9.90
2022-11-03T09:27:33.284Z,10.00
2022-11-03T09:30:12.919Z,10.20
2022-11-03T09:32:40.669Z,10.30
2022-11-03T09:35:08.496Z,10.30
2022-11-03T09:37:35.315Z,10.30
2022-11-03T09:40:02.196Z,10.40
2022-11-03T09:42:28.754Z,10.30
2022-11-03T09:44:55.367Z,10.30
2022-11-03T09:47:27.708Z,10.40
2022-11-03T09:49:54.317Z,10.60
2022-11-03T09:52:22.644Z,10.70
2022-11-03T09:54:49.554Z,10.60
2022-11-03T09:57:17.012Z,10.70
2022-11-03T09:59:44.917Z,11.00
2022-11-03T10:04:38.472Z,10.90
2022-11-03T10:07:07.694Z,11.20
2022-11-03T10:09:34.350Z,11.10
2022-11-03T10:12:01.236Z,11.40
2022-11-03T10:14:28.557Z,11.60
2022-11-03T10:17:01.672Z,11.60
2022-11-03T10:19:28.402Z,11.90
2022-11-03T10:21:54.973Z,12.10
2022-11-03T10:24:22.119Z,12.00
2022-11-03T10:26:53.218Z,12.40
2022-11-03T10:34:34.582Z,12.80
2022-11-03T10:37:23.117Z,12.20
2022-11-03T10:39:51.008Z,12.30
2022-11-03T10:42:21.750Z,12.30
2022-11-03T10:44:50.642Z,12.60
2022-11-03T11:17:02.300Z,13.60
2022-11-03T11:19:29.679Z,13.40
2022-11-03T11:21:56.210Z,13.20
2022-11-03T11:24:41.372Z,13.30
2022-11-03T11:27:37.279Z,13.60
2022-11-03T11:30:05.174Z,13.60
2022-11-03T11:32:47.970Z,14.10
2022-11-03T11:35:37.600Z,14.10
2022-11-03T11:38:22.820Z,14.20
2022-11-03T11:40:50.519Z,14.20
2022-11-03T11:43:20.056Z,14.50
2022-11-03T11:46:13.003Z,14.10
2022-11-03T11:48:39.588Z,14.20
2022-11-03T11:51:10.657Z,14.00
2022-11-03T11:53:41.199Z,14.00
2022-11-03T11:56:16.393Z,14.00
2022-11-03T11:58:48.139Z,14.30
2022-11-03T12:04:22.119Z,14.70
2022-11-03T12:06:48.818Z,16.00
2022-11-03T12:09:17.072Z,15.70
2022-11-03T12:11:56.153Z,15.70
2022-11-03T12:14:26.220Z,14.50
2022-11-03T12:16:53.290Z,14.40
2022-11-03T12:19:31.975Z,14.30
2022-11-03T12:21:58.563Z,14.60
2022-11-03T12:26:52.086Z,14.80
2022-11-03T12:29:18.641Z,14.50
2022-11-03T12:31:46.675Z,14.30
2022-11-03T12:34:13.219Z,15.20
2022-11-03T12:39:06.713Z,13.90
2022-11-03T12:41:33.269Z,13.80
2022-11-03T12:43:59.916Z,13.80
2022-11-03T12:46:27.105Z,14.00
2022-11-03T12:48:53.652Z,14.40
2022-11-03T12:51:20.996Z,14.40
2022-11-03T12:53:47.843Z,14.20
2022-11-03T12:56:15.052Z,14.40
2022-11-03T12:58:41.616Z,14.50
2022-11-03T13:01:08.621Z,14.30
2022-11-03T13:03:35.721Z,14.20
2022-11-03T13:06:04.516Z,14.10
2022-11-03T13:08:31.470Z,14.00
2022-11-03T13:10:58.105Z,14.00
2022-11-03T13:13:24.681Z,14.10
2022-11-03T13:15:52.991Z,14.10
2022-11-03T13:18:20.317Z,14.00
2022-11-03T13:20:46.870Z,13.90
2022-11-03T13:23:15.281Z,14.10
2022-11-03T13:25:46.423Z,13.70
2022-11-03T13:30:41.378Z,13.60
2022-11-03T13:33:08.121Z,13.60
2022-11-03T13:51:13.959Z,13.70
2022-11-03T14:27:15.653Z,13.00
2022-11-03T14:29:43.751Z,12.90
2022-11-03T14:32:10.945Z,12.90
2022-11-03T14:34:38.405Z,12.80
2022-11-03T14:37:07.197Z,12.80
2022-11-03T14:42:49.950Z,12.70
2022-11-03T14:45:17.513Z,12.70
2022-11-03T14:47:45.129Z,12.90
2022-11-03T14:50:12.196Z,12.60
2022-11-03T14:52:38.775Z,12.50
2022-11-03T14:55:05.765Z,12.40
2022-11-03T14:57:32.374Z,12.00
2022-11-03T14:59:58.975Z,12.40
2022-11-03T15:02:25.659Z,12.30
2022-11-03T15:04:52.352Z,11.80
2022-11-03T15:07:18.966Z,11.90
2022-11-03T15:09:45.583Z,12.40
2022-11-03T15:12:12.197Z,12.30
2022-11-03T15:14:38.811Z,12.00
2022-11-03T15:17:05.433Z,12.20
2022-11-03T15:19:32.067Z,11.90
2022-11-03T15:21:58.728Z,12.20
2022-11-03T15:27:12.180Z,13.20
2022-11-03T15:29:38.829Z,11.90
2022-11-03T15:32:05.552Z,12.00
2022-11-03T15:34:32.202Z,12.10
2022-11-03T15:36:58.935Z,12.00
2022-11-03T15:39:25.641Z,11.70
2022-11-03T15:41:52.296Z,13.20
2022-11-03T15:44:18.890Z,11.30
2022-11-03T15:46:45.527Z,11.50
2022-11-03T15:49:12.162Z,11.30
2022-11-03T15:51:38.795Z,12.70
2022-11-03T15:54:05.429Z,11.50
2022-11-03T15:56:32.087Z,11.90
2022-11-03T15:58:58.671Z,11.80
2022-11-03T16:01:25.363Z,12.30
2022-11-03T16:03:52.121Z,13.00
2022-11-03T16:06:18.734Z,11.20
2022-11-03T16:08:45.302Z,13.00
2022-11-03T16:11:12.014Z,11.00
2022-11-03T16:13:39.541Z,11.50
2022-11-03T16:16:06.695Z,12.70
2022-11-03T16:18:33.319Z,12.40
2022-11-03T16:20:59.958Z,11.20
2022-11-03T16:23:26.617Z,10.80
2022-11-03T16:25:53.601Z,11.20
2022-11-03T16:28:20.324Z,12.40
2022-11-03T16:30:52.818Z,11.10
2022-11-03T16:33:20.795Z,10.80
2022-11-03T16:35:47.361Z,11.20
2022-11-03T16:38:15.220Z,10.70
2022-11-03T16:40:42.463Z,10.60
2022-11-03T16:43:09.249Z,10.80
2022-11-03T16:45:38.006Z,11.00
2022-11-03T16:48:05.856Z,10.90
2022-11-03T16:50:32.894Z,11.00
2022-11-03T16:52:59.554Z,10.40
2022-11-03T16:55:26.177Z,10.60
2022-11-03T16:57:52.728Z,10.30
2022-11-03T17:00:19.907Z,10.20
2022-11-03T17:02:46.916Z,11.30
2022-11-03T17:05:15.489Z,10.40
2022-11-03T17:07:42.060Z,10.60
2022-11-03T17:10:09.268Z,10.60
2022-11-03T17:12:35.813Z,10.50
2022-11-03T17:15:02.976Z,10.50
